sensor_id;sensor_type;location;lat;lon;timestamp;pressure;altitude;pressure_sealevel;temperature;humidity
14882;BME280;7533;51.278;12.588;2023-03-03T00:05:14;100732.16;;;20.87;55.84
14882;BME280;7533;51.278;12.588;2023-03-03T00:10:19;100735.16;;;20.82;56.23
14882;BME280;7533;51.278;12.588;2023-03-03T00:15:23;100727.25;;;20.79;56.33
14882;BME280;7533;51.278;12.588;2023-03-03T00:20:35;100734.91;;;20.71;56.48
14882;BME280;7533;51.278;12.588;2023-03-03T00:25:42;100734.22;;;20.68;56.63
14882;BME280;7533;51.278;12.588;2023-03-03T00:30:45;100739.75;;;20.65;56.81
14882;BME280;7533;51.278;12.588;2023-03-03T00:35:49;100738.91;;;20.64;56.88
14882;BME280;7533;51.278;12.588;2023-03-03T00:40:52;100737.44;;;20.58;57.17
14882;BME280;7533;51.278;12.588;2023-03-03T00:45:55;100728.69;;;20.55;57.23
14882;BME280;7533;51.278;12.588;2023-03-03T00:51:22;100722.72;;;20.50;57.38
14882;BME280;7533;51.278;12.588;2023-03-03T00:56:26;100731.75;;;20.49;57.63
14882;BME280;7533;51.278;12.588;2023-03-03T01:01:30;100742.66;;;20.46;57.56
14882;BME280;7533;51.278;12.588;2023-03-03T01:06:34;100743.00;;;20.40;57.81
14882;BME280;7533;51.278;12.588;2023-03-03T01:11:37;100734.16;;;20.38;57.71
14882;BME280;7533;51.278;12.588;2023-03-03T01:16:40;100733.34;;;20.35;58.11
14882;BME280;7533;51.278;12.588;2023-03-03T01:21:45;100734.50;;;20.31;58.10
14882;BME280;7533;51.278;12.588;2023-03-03T01:26:48;100733.91;;;20.26;58.18
14882;BME280;7533;51.278;12.588;2023-03-03T01:31:51;100726.88;;;20.24;58.22
14882;BME280;7533;51.278;12.588;2023-03-03T01:36:55;100718.19;;;20.19;58.46
14882;BME280;7533;51.278;12.588;2023-03-03T01:41:58;100719.25;;;20.16;58.50
14882;BME280;7533;51.278;12.588;2023-03-03T01:47:04;100710.69;;;20.10;58.56
14882;BME280;7533;51.278;12.588;2023-03-03T01:52:14;100708.91;;;20.08;58.65
14882;BME280;7533;51.278;12.588;2023-03-03T01:57:25;100714.56;;;20.04;58.85
14882;BME280;7533;51.278;12.588;2023-03-03T02:02:30;100716.47;;;20.02;58.77
14882;BME280;7533;51.278;12.588;2023-03-03T02:07:35;100723.66;;;20.01;58.82
14882;BME280;7533;51.278;12.588;2023-03-03T02:12:41;100718.47;;;19.98;59.05
14882;BME280;7533;51.278;12.588;2023-03-03T02:17:45;100720.56;;;19.93;59.26
14882;BME280;7533;51.278;12.588;2023-03-03T02:22:54;100723.50;;;19.89;59.25
14882;BME280;7533;51.278;12.588;2023-03-03T02:28:00;100724.44;;;19.88;59.11
14882;BME280;7533;51.278;12.588;2023-03-03T02:33:05;100728.97;;;19.87;59.38
14882;BME280;7533;51.278;12.588;2023-03-03T02:38:17;100726.53;;;19.83;59.42
14882;BME280;7533;51.278;12.588;2023-03-03T02:43:28;100733.78;;;19.80;59.46
14882;BME280;7533;51.278;12.588;2023-03-03T02:48:33;100727.53;;;19.80;59.64
14882;BME280;7533;51.278;12.588;2023-03-03T02:53:37;100727.88;;;19.74;59.68
14882;BME280;7533;51.278;12.588;2023-03-03T02:58:41;100736.03;;;19.72;59.80
14882;BME280;7533;51.278;12.588;2023-03-03T03:03:44;100732.47;;;19.72;59.87
14882;BME280;7533;51.278;12.588;2023-03-03T03:08:51;100720.88;;;19.71;59.89
14882;BME280;7533;51.278;12.588;2023-03-03T03:13:56;100714.63;;;19.71;59.92
14882;BME280;7533;51.278;12.588;2023-03-03T03:19:00;100700.50;;;19.67;59.92
14882;BME280;7533;51.278;12.588;2023-03-03T03:24:04;100688.13;;;19.65;60.07
14882;BME280;7533;51.278;12.588;2023-03-03T03:29:10;100698.00;;;19.64;59.94
14882;BME280;7533;51.278;12.588;2023-03-03T03:34:13;100706.22;;;19.61;59.99
14882;BME280;7533;51.278;12.588;2023-03-03T03:39:17;100717.03;;;19.60;60.17
14882;BME280;7533;51.278;12.588;2023-03-03T03:44:24;100729.59;;;19.59;60.16
14882;BME280;7533;51.278;12.588;2023-03-03T03:49:28;100734.97;;;19.59;60.44
14882;BME280;7533;51.278;12.588;2023-03-03T03:54:32;100737.88;;;19.54;60.35
14882;BME280;7533;51.278;12.588;2023-03-03T03:59:36;100735.19;;;19.54;60.34
14882;BME280;7533;51.278;12.588;2023-03-03T04:04:39;100744.34;;;19.50;60.36
14882;BME280;7533;51.278;12.588;2023-03-03T04:09:42;100749.72;;;19.50;60.50
14882;BME280;7533;51.278;12.588;2023-03-03T04:14:47;100750.66;;;19.49;60.64
14882;BME280;7533;51.278;12.588;2023-03-03T04:19:51;100740.88;;;19.48;60.61
14882;BME280;7533;51.278;12.588;2023-03-03T04:24:55;100749.00;;;19.47;61.01
14882;BME280;7533;51.278;12.588;2023-03-03T04:30:00;100756.47;;;19.42;60.84
14882;BME280;7533;51.278;12.588;2023-03-03T04:35:03;100753.06;;;19.38;61.01
14882;BME280;7533;51.278;12.588;2023-03-03T04:40:12;100749.59;;;19.36;61.14
14882;BME280;7533;51.278;12.588;2023-03-03T04:45:18;100752.28;;;19.36;60.97
14882;BME280;7533;51.278;12.588;2023-03-03T04:50:21;100750.47;;;19.37;60.73
14882;BME280;7533;51.278;12.588;2023-03-03T04:55:24;100763.88;;;19.37;60.71
14882;BME280;7533;51.278;12.588;2023-03-03T05:00:28;100749.66;;;19.35;60.75
14882;BME280;7533;51.278;12.588;2023-03-03T05:05:32;100748.97;;;19.31;60.71
14882;BME280;7533;51.278;12.588;2023-03-03T05:10:35;100755.34;;;19.28;60.57
14882;BME280;7533;51.278;12.588;2023-03-03T05:15:40;100766.09;;;19.28;60.67
14882;BME280;7533;51.278;12.588;2023-03-03T05:20:43;100773.50;;;19.23;60.86
14882;BME280;7533;51.278;12.588;2023-03-03T05:25:47;100766.28;;;19.25;60.58
14882;BME280;7533;51.278;12.588;2023-03-03T05:30:51;100772.66;;;19.23;60.64
14882;BME280;7533;51.278;12.588;2023-03-03T05:35:55;100775.41;;;19.21;60.54
14882;BME280;7533;51.278;12.588;2023-03-03T05:40:59;100772.66;;;19.23;60.53
14882;BME280;7533;51.278;12.588;2023-03-03T05:46:03;100775.56;;;19.18;60.58
14882;BME280;7533;51.278;12.588;2023-03-03T05:51:06;100770.19;;;19.18;60.62
14882;BME280;7533;51.278;12.588;2023-03-03T05:56:09;100763.91;;;19.19;60.56
14882;BME280;7533;51.278;12.588;2023-03-03T06:01:13;100759.41;;;19.20;60.37
14882;BME280;7533;51.278;12.588;2023-03-03T06:06:16;100767.59;;;19.17;60.37
14882;BME280;7533;51.278;12.588;2023-03-03T06:11:19;100764.06;;;19.16;60.46
14882;BME280;7533;51.278;12.588;2023-03-03T06:16:24;100797.22;;;19.15;60.54
14882;BME280;7533;51.278;12.588;2023-03-03T06:21:27;100797.53;;;19.09;52.71
14882;BME280;7533;51.278;12.588;2023-03-03T06:26:30;100825.50;;;13.84;48.02
14882;BME280;7533;51.278;12.588;2023-03-03T06:31:34;100832.56;;;12.47;49.07
14882;BME280;7533;51.278;12.588;2023-03-03T06:36:37;100833.75;;;10.98;52.18
14882;BME280;7533;51.278;12.588;2023-03-03T06:41:40;100820.25;;;12.04;52.43
14882;BME280;7533;51.278;12.588;2023-03-03T06:46:44;100798.38;;;15.63;50.65
14882;BME280;7533;51.278;12.588;2023-03-03T06:51:47;100797.50;;;16.77;49.79
14882;BME280;7533;51.278;12.588;2023-03-03T06:56:52;100807.16;;;17.23;49.35
14882;BME280;7533;51.278;12.588;2023-03-03T07:02:00;100813.91;;;17.52;49.64
14882;BME280;7533;51.278;12.588;2023-03-03T07:07:10;100826.41;;;17.72;49.90
14882;BME280;7533;51.278;12.588;2023-03-03T07:12:19;100835.50;;;17.88;50.36
14882;BME280;7533;51.278;12.588;2023-03-03T07:17:25;100847.44;;;18.00;50.94
14882;BME280;7533;51.278;12.588;2023-03-03T07:22:28;100846.25;;;18.07;51.15
14882;BME280;7533;51.278;12.588;2023-03-03T07:27:31;100850.38;;;18.14;51.65
14882;BME280;7533;51.278;12.588;2023-03-03T07:32:38;100856.44;;;18.18;51.98
14882;BME280;7533;51.278;12.588;2023-03-03T07:37:41;100863.41;;;18.22;52.38
14882;BME280;7533;51.278;12.588;2023-03-03T07:42:45;100871.22;;;18.27;52.48
14882;BME280;7533;51.278;12.588;2023-03-03T07:48:02;100868.44;;;18.30;52.66
14882;BME280;7533;51.278;12.588;2023-03-03T07:53:14;100862.03;;;18.32;52.88
14882;BME280;7533;51.278;12.588;2023-03-03T07:58:27;100863.69;;;18.35;53.08
14882;BME280;7533;51.278;12.588;2023-03-03T08:03:38;100870.75;;;18.37;53.43
14882;BME280;7533;51.278;12.588;2023-03-03T08:08:41;100878.69;;;18.39;53.60
14882;BME280;7533;51.278;12.588;2023-03-03T08:13:46;100867.84;;;18.42;53.53
14882;BME280;7533;51.278;12.588;2023-03-03T08:18:51;100866.03;;;18.42;53.79
14882;BME280;7533;51.278;12.588;2023-03-03T08:23:55;100870.44;;;18.43;53.85
14882;BME280;7533;51.278;12.588;2023-03-03T08:28:58;100861.47;;;18.44;54.06
14882;BME280;7533;51.278;12.588;2023-03-03T08:34:03;100856.91;;;18.46;54.18
14882;BME280;7533;51.278;12.588;2023-03-03T08:39:06;100864.88;;;18.48;54.26
14882;BME280;7533;51.278;12.588;2023-03-03T08:44:10;100862.13;;;18.49;54.33
14882;BME280;7533;51.278;12.588;2023-03-03T08:49:14;100869.19;;;18.50;54.29
14882;BME280;7533;51.278;12.588;2023-03-03T08:54:17;100874.56;;;18.50;54.34
14882;BME280;7533;51.278;12.588;2023-03-03T08:59:20;100883.44;;;18.53;54.50
14882;BME280;7533;51.278;12.588;2023-03-03T09:04:24;100886.88;;;18.55;54.58
14882;BME280;7533;51.278;12.588;2023-03-03T09:09:28;100890.44;;;18.55;54.68
14882;BME280;7533;51.278;12.588;2023-03-03T09:14:31;100891.22;;;18.57;54.88
14882;BME280;7533;51.278;12.588;2023-03-03T09:19:35;100894.81;;;18.58;54.84
14882;BME280;7533;51.278;12.588;2023-03-03T09:24:41;100895.59;;;18.60;54.90
14882;BME280;7533;51.278;12.588;2023-03-03T09:29:44;100893.69;;;18.62;54.89
14882;BME280;7533;51.278;12.588;2023-03-03T09:34:48;100901.69;;;18.63;54.92
14882;BME280;7533;51.278;12.588;2023-03-03T09:39:52;100893.56;;;18.65;55.11
14882;BME280;7533;51.278;12.588;2023-03-03T09:45:07;100906.69;;;18.71;55.34
14882;BME280;7533;51.278;12.588;2023-03-03T09:50:27;100898.78;;;18.87;55.34
14882;BME280;7533;51.278;12.588;2023-03-03T09:55:42;100907.53;;;19.09;55.03
14882;BME280;7533;51.278;12.588;2023-03-03T10:00:55;100882.66;;;19.23;55.06
14882;BME280;7533;51.278;12.588;2023-03-03T10:06:07;100892.78;;;19.35;54.79
14882;BME280;7533;51.278;12.588;2023-03-03T10:11:17;100891.28;;;19.47;54.66
14882;BME280;7533;51.278;12.588;2023-03-03T10:16:44;100899.75;;;19.56;54.60
14882;BME280;7533;51.278;12.588;2023-03-03T10:21:58;100907.19;;;19.69;54.62
14882;BME280;7533;51.278;12.588;2023-03-03T10:27:18;100903.25;;;19.76;54.51
14882;BME280;7533;51.278;12.588;2023-03-03T10:32:34;100905.53;;;19.84;54.33
14882;BME280;7533;51.278;12.588;2023-03-03T10:37:48;100907.03;;;19.89;54.50
14882;BME280;7533;51.278;12.588;2023-03-03T10:43:22;100900.31;;;19.98;54.34
14882;BME280;7533;51.278;12.588;2023-03-03T10:48:50;100896.44;;;20.03;54.39
14882;BME280;7533;51.278;12.588;2023-03-03T10:54:08;100903.34;;;20.07;54.32
14882;BME280;7533;51.278;12.588;2023-03-03T11:05:18;100896.63;;;20.16;54.31
14882;BME280;7533;51.278;12.588;2023-03-03T11:10:38;100895.66;;;19.49;50.07
14882;BME280;7533;51.278;12.588;2023-03-03T11:21:15;100899.47;;;14.93;45.44
14882;BME280;7533;51.278;12.588;2023-03-03T11:26:37;100892.94;;;16.51;45.09
14882;BME280;7533;51.278;12.588;2023-03-03T11:31:46;100906.31;;;18.41;46.80
14882;BME280;7533;51.278;12.588;2023-03-03T11:36:54;100895.00;;;18.91;46.74
14882;BME280;7533;51.278;12.588;2023-03-03T11:42:08;100885.53;;;19.20;47.62
14882;BME280;7533;51.278;12.588;2023-03-03T11:47:21;100896.97;;;19.41;47.87
14882;BME280;7533;51.278;12.588;2023-03-03T11:52:31;100891.59;;;19.58;48.51
14882;BME280;7533;51.278;12.588;2023-03-03T11:57:42;100899.13;;;19.69;49.04
14882;BME280;7533;51.278;12.588;2023-03-03T12:03:13;100893.16;;;19.81;49.91
14882;BME280;7533;51.278;12.588;2023-03-03T12:14:07;100869.72;;;20.00;50.73
14882;BME280;7533;51.278;12.588;2023-03-03T12:19:25;100863.13;;;20.06;51.31
14882;BME280;7533;51.278;12.588;2023-03-03T12:24:35;100853.97;;;20.10;51.82
14882;BME280;7533;51.278;12.588;2023-03-03T12:29:42;100848.34;;;20.15;52.14
14882;BME280;7533;51.278;12.588;2023-03-03T12:34:56;100846.44;;;20.17;52.33
14882;BME280;7533;51.278;12.588;2023-03-03T12:40:06;100851.72;;;20.18;52.78
14882;BME280;7533;51.278;12.588;2023-03-03T12:45:23;100842.78;;;20.18;53.10
14882;BME280;7533;51.278;12.588;2023-03-03T12:50:37;100843.66;;;20.18;53.36
14882;BME280;7533;51.278;12.588;2023-03-03T12:55:50;100844.63;;;20.17;53.58
14882;BME280;7533;51.278;12.588;2023-03-03T13:01:05;100832.91;;;20.18;53.77
14882;BME280;7533;51.278;12.588;2023-03-03T13:06:20;100829.34;;;20.18;53.94
14882;BME280;7533;51.278;12.588;2023-03-03T13:11:39;100824.84;;;20.18;54.14
14882;BME280;7533;51.278;12.588;2023-03-03T13:17:00;100819.56;;;20.17;54.22
14882;BME280;7533;51.278;12.588;2023-03-03T13:22:08;100813.22;;;20.18;54.33
14882;BME280;7533;51.278;12.588;2023-03-03T13:27:14;100808.56;;;20.21;54.30
14882;BME280;7533;51.278;12.588;2023-03-03T13:32:22;100806.81;;;20.20;54.65
14882;BME280;7533;51.278;12.588;2023-03-03T13:37:28;100821.13;;;20.21;54.98
14882;BME280;7533;51.278;12.588;2023-03-03T13:42:38;100826.88;;;17.82;43.83
14882;BME280;7533;51.278;12.588;2023-03-03T13:47:47;100817.09;;;18.56;49.83
14882;BME280;7533;51.278;12.588;2023-03-03T13:53:05;100823.16;;;19.32;50.76
14882;BME280;7533;51.278;12.588;2023-03-03T13:58:22;100818.13;;;19.61;51.04
14882;BME280;7533;51.278;12.588;2023-03-03T14:03:49;100800.16;;;19.78;51.22
14882;BME280;7533;51.278;12.588;2023-03-03T14:09:18;100787.72;;;19.93;51.32
14882;BME280;7533;51.278;12.588;2023-03-03T14:14:46;100787.13;;;20.04;51.41
14882;BME280;7533;51.278;12.588;2023-03-03T14:20:02;100777.84;;;20.10;51.60
14882;BME280;7533;51.278;12.588;2023-03-03T14:25:10;100759.22;;;20.22;52.05
14882;BME280;7533;51.278;12.588;2023-03-03T14:30:35;100765.56;;;20.37;51.95
14882;BME280;7533;51.278;12.588;2023-03-03T14:35:42;100764.94;;;20.48;52.04
14882;BME280;7533;51.278;12.588;2023-03-03T14:40:46;100759.91;;;20.57;51.88
14882;BME280;7533;51.278;12.588;2023-03-03T14:45:49;100756.50;;;20.70;51.84
14882;BME280;7533;51.278;12.588;2023-03-03T14:50:56;100746.16;;;20.78;51.85
14882;BME280;7533;51.278;12.588;2023-03-03T14:56:19;100750.13;;;20.86;51.76
14882;BME280;7533;51.278;12.588;2023-03-03T15:01:30;100753.25;;;20.95;51.72
14882;BME280;7533;51.278;12.588;2023-03-03T15:06:39;100752.97;;;20.99;51.67
14882;BME280;7533;51.278;12.588;2023-03-03T15:11:43;100743.84;;;21.02;51.79
14882;BME280;7533;51.278;12.588;2023-03-03T15:16:46;100753.47;;;21.06;51.93
14882;BME280;7533;51.278;12.588;2023-03-03T15:21:57;100756.06;;;21.07;51.77
14882;BME280;7533;51.278;12.588;2023-03-03T15:27:05;100744.31;;;21.08;51.74
14882;BME280;7533;51.278;12.588;2023-03-03T15:32:14;100734.41;;;21.09;51.98
14882;BME280;7533;51.278;12.588;2023-03-03T15:37:32;100742.22;;;21.13;52.02
14882;BME280;7533;51.278;12.588;2023-03-03T15:42:46;100739.25;;;21.18;52.12
14882;BME280;7533;51.278;12.588;2023-03-03T15:47:59;100732.72;;;21.22;52.04
14882;BME280;7533;51.278;12.588;2023-03-03T15:53:14;100733.31;;;21.27;52.24
14882;BME280;7533;51.278;12.588;2023-03-03T15:58:52;100734.00;;;21.31;52.32
14882;BME280;7533;51.278;12.588;2023-03-03T16:04:04;100736.53;;;21.34;52.24
14882;BME280;7533;51.278;12.588;2023-03-03T16:09:20;100742.50;;;21.39;52.05
14882;BME280;7533;51.278;12.588;2023-03-03T16:14:49;100738.75;;;21.42;52.02
14882;BME280;7533;51.278;12.588;2023-03-03T16:20:04;100734.03;;;21.45;52.21
14882;BME280;7533;51.278;12.588;2023-03-03T16:25:25;100736.47;;;21.50;52.14
14882;BME280;7533;51.278;12.588;2023-03-03T16:30:36;100736.63;;;21.47;52.44
14882;BME280;7533;51.278;12.588;2023-03-03T16:35:48;100745.00;;;21.56;52.20
14882;BME280;7533;51.278;12.588;2023-03-03T16:40:56;100756.66;;;21.57;52.29
14882;BME280;7533;51.278;12.588;2023-03-03T16:46:07;100750.28;;;21.58;52.26
14882;BME280;7533;51.278;12.588;2023-03-03T16:51:22;100748.28;;;21.61;52.33
14882;BME280;7533;51.278;12.588;2023-03-03T16:56:33;100748.75;;;21.68;52.26
14882;BME280;7533;51.278;12.588;2023-03-03T17:01:46;100741.34;;;21.72;52.68
14882;BME280;7533;51.278;12.588;2023-03-03T17:06:54;100746.44;;;21.76;52.62
14882;BME280;7533;51.278;12.588;2023-03-03T17:12:11;100747.31;;;21.77;52.67
14882;BME280;7533;51.278;12.588;2023-03-03T17:17:26;100746.53;;;21.75;52.64
14882;BME280;7533;51.278;12.588;2023-03-03T17:22:43;100747.31;;;21.77;52.47
14882;BME280;7533;51.278;12.588;2023-03-03T17:28:02;100754.53;;;21.76;52.51
14882;BME280;7533;51.278;12.588;2023-03-03T17:33:20;100760.50;;;21.67;52.68
14882;BME280;7533;51.278;12.588;2023-03-03T17:38:35;100767.22;;;21.74;52.58
14882;BME280;7533;51.278;12.588;2023-03-03T17:43:48;100765.41;;;21.75;52.38
14882;BME280;7533;51.278;12.588;2023-03-03T17:54:40;100757.22;;;21.76;52.38
14882;BME280;7533;51.278;12.588;2023-03-03T18:00:14;100748.38;;;21.74;52.42
14882;BME280;7533;51.278;12.588;2023-03-03T18:05:32;100757.13;;;21.78;52.52
14882;BME280;7533;51.278;12.588;2023-03-03T18:10:52;100754.44;;;21.78;52.35
14882;BME280;7533;51.278;12.588;2023-03-03T18:16:15;100769.81;;;21.33;53.06
14882;BME280;7533;51.278;12.588;2023-03-03T18:21:26;100771.94;;;21.71;52.56
14882;BME280;7533;51.278;12.588;2023-03-03T18:26:34;100776.19;;;21.75;52.37
14882;BME280;7533;51.278;12.588;2023-03-03T18:31:48;100766.16;;;21.77;52.31
14882;BME280;7533;51.278;12.588;2023-03-03T18:36:53;100756.34;;;21.76;52.23
14882;BME280;7533;51.278;12.588;2023-03-03T18:42:08;100751.06;;;21.74;52.23
14882;BME280;7533;51.278;12.588;2023-03-03T18:47:12;100766.16;;;21.77;52.13
14882;BME280;7533;51.278;12.588;2023-03-03T18:52:23;100756.34;;;21.76;51.96
14882;BME280;7533;51.278;12.588;2023-03-03T18:57:26;100760.78;;;21.77;51.74
14882;BME280;7533;51.278;12.588;2023-03-03T19:02:36;100755.38;;;21.77;51.80
14882;BME280;7533;51.278;12.588;2023-03-03T19:07:48;100775.41;;;21.73;51.87
14882;BME280;7533;51.278;12.588;2023-03-03T19:12:53;100773.47;;;21.75;51.81
14882;BME280;7533;51.278;12.588;2023-03-03T19:17:59;100776.19;;;21.75;52.00
14882;BME280;7533;51.278;12.588;2023-03-03T19:23:05;100773.59;;;21.73;51.91
14882;BME280;7533;51.278;12.588;2023-03-03T19:28:28;100774.44;;;21.74;51.84
14882;BME280;7533;51.278;12.588;2023-03-03T19:33:49;100779.06;;;21.72;51.98
14882;BME280;7533;51.278;12.588;2023-03-03T19:39:10;100777.31;;;21.71;51.79
14882;BME280;7533;51.278;12.588;2023-03-03T19:44:28;100777.31;;;21.71;51.86
14882;BME280;7533;51.278;12.588;2023-03-03T19:49:50;100778.28;;;21.70;51.92
14882;BME280;7533;51.278;12.588;2023-03-03T19:55:05;100768.50;;;21.69;51.87
14882;BME280;7533;51.278;12.588;2023-03-03T20:00:22;100767.41;;;21.71;51.80
14882;BME280;7533;51.278;12.588;2023-03-03T20:05:31;100771.28;;;21.67;51.82
14882;BME280;7533;51.278;12.588;2023-03-03T20:10:43;100756.94;;;21.67;51.85
14882;BME280;7533;51.278;12.588;2023-03-03T20:15:53;100745.09;;;21.69;51.74
14882;BME280;7533;51.278;12.588;2023-03-03T20:21:08;100737.31;;;21.64;51.73
14882;BME280;7533;51.278;12.588;2023-03-03T20:26:15;100741.66;;;21.67;51.90
14882;BME280;7533;51.278;12.588;2023-03-03T20:31:30;100750.59;;;21.68;51.65
14882;BME280;7533;51.278;12.588;2023-03-03T20:36:43;100748.75;;;21.68;51.65
14882;BME280;7533;51.278;12.588;2023-03-03T20:41:56;100743.16;;;21.71;51.70
14882;BME280;7533;51.278;12.588;2023-03-03T20:47:04;100751.47;;;21.68;51.65
14882;BME280;7533;51.278;12.588;2023-03-03T20:52:21;100747.31;;;21.62;51.58
14882;BME280;7533;51.278;12.588;2023-03-03T20:57:35;100747.78;;;21.69;51.56
14882;BME280;7533;51.278;12.588;2023-03-03T21:02:47;100745.09;;;21.69;51.42
14882;BME280;7533;51.278;12.588;2023-03-03T21:07:58;100754.44;;;21.63;51.66
14882;BME280;7533;51.278;12.588;2023-03-03T21:13:23;100753.47;;;21.64;51.54
14882;BME280;7533;51.278;12.588;2023-03-03T21:18:27;100745.28;;;21.66;51.64
14882;BME280;7533;51.278;12.588;2023-03-03T21:23:31;100744.13;;;21.70;51.44
14882;BME280;7533;51.278;12.588;2023-03-03T21:28:34;100740.78;;;21.67;51.54
14882;BME280;7533;51.278;12.588;2023-03-03T21:33:50;100739.72;;;21.69;51.50
14882;BME280;7533;51.278;12.588;2023-03-03T21:38:56;100730.66;;;21.70;51.43
14882;BME280;7533;51.278;12.588;2023-03-03T21:43:59;100728.25;;;21.65;51.22
14882;BME280;7533;51.278;12.588;2023-03-03T21:49:02;100720.97;;;21.68;51.13
14882;BME280;7533;51.278;12.588;2023-03-03T21:54:06;100716.22;;;21.71;51.01
14882;BME280;7533;51.278;12.588;2023-03-03T21:59:09;100715.75;;;21.64;50.50
14882;BME280;7533;51.278;12.588;2023-03-03T22:04:11;100712.00;;;21.67;51.04
14882;BME280;7533;51.278;12.588;2023-03-03T22:09:17;100704.88;;;21.66;51.13
14882;BME280;7533;51.278;12.588;2023-03-03T22:14:20;100707.38;;;21.69;50.88
14882;BME280;7533;51.278;12.588;2023-03-03T22:19:23;100707.28;;;21.71;50.66
14882;BME280;7533;51.278;12.588;2023-03-03T22:24:27;100705.56;;;21.70;50.65
14882;BME280;7533;51.278;12.588;2023-03-03T22:29:30;100701.31;;;21.65;50.65
14882;BME280;7533;51.278;12.588;2023-03-03T22:34:33;100699.13;;;21.58;50.94
14882;BME280;7533;51.278;12.588;2023-03-03T22:39:37;100694.97;;;21.52;51.24
14882;BME280;7533;51.278;12.588;2023-03-03T22:44:40;100686.44;;;21.46;51.79
14882;BME280;7533;51.278;12.588;2023-03-03T22:49:46;100689.41;;;21.41;52.02
14882;BME280;7533;51.278;12.588;2023-03-03T22:54:50;100686.25;;;21.34;52.26
14882;BME280;7533;51.278;12.588;2023-03-03T22:59:53;100692.84;;;21.29;52.37
14882;BME280;7533;51.278;12.588;2023-03-03T23:04:56;100685.31;;;21.20;52.47
14882;BME280;7533;51.278;12.588;2023-03-03T23:10:05;100682.03;;;21.14;52.79
14882;BME280;7533;51.278;12.588;2023-03-03T23:15:10;100671.56;;;21.10;52.91
14882;BME280;7533;51.278;12.588;2023-03-03T23:20:19;100656.56;;;21.06;53.15
14882;BME280;7533;51.278;12.588;2023-03-03T23:25:24;100662.25;;;21.01;53.20
14882;BME280;7533;51.278;12.588;2023-03-03T23:30:29;100648.94;;;20.98;53.36
14882;BME280;7533;51.278;12.588;2023-03-03T23:35:31;100651.94;;;20.94;53.39
14882;BME280;7533;51.278;12.588;2023-03-03T23:40:36;100646.00;;;20.89;53.51
14882;BME280;7533;51.278;12.588;2023-03-03T23:45:39;100635.50;;;20.84;53.74
14882;BME280;7533;51.278;12.588;2023-03-03T23:50:42;100627.69;;;20.79;53.78
14882;BME280;7533;51.278;12.588;2023-03-03T23:55:46;100616.25;;;20.76;54.13
